Terminal Aerodrome Forecast
Issued by NWS

Home | Current Version | Previous Version | Text Only | Print | Product List | Glossary On
Versions: 1 2 3 4 5 6 7 8 9 10 11 12 13 14 15 16 17
000
FTAK31 PAJN 020900 AAA
TAFAWG
TAF AMD
PAWG 020901Z 0209/0306 VRB02KT 6SM BR VCFG BKN012 BKN030
      TEMPO 0209/0212 1/2SM FG BKN007
     FM021400 25003KT 6SM BR FEW007 BKN040
     FM021800 31004KT P6SM SCT050 BKN070
      AMD LTD TO CLD VIS AND WIND 0209/0215=

USA.gov is the U.S. government's official web portal to all federal, state and local government web resources and services.